createdAt,value
2019-01-26T00:00:15.898Z,19.73
2019-01-26T00:01:15.840Z,19.74
2019-01-26T00:02:15.830Z,19.59
2019-01-26T00:03:15.822Z,19.74
2019-01-26T00:04:15.795Z,19.73
2019-01-26T00:05:15.819Z,19.73
2019-01-26T00:06:15.798Z,19.70
2019-01-26T00:07:15.759Z,19.70
2019-01-26T00:08:15.781Z,19.66
2019-01-26T00:09:15.736Z,19.66
2019-01-26T00:10:15.806Z,19.62
2019-01-26T00:11:15.758Z,19.56
2019-01-26T00:12:15.774Z,19.63
2019-01-26T00:13:15.782Z,19.64
2019-01-26T00:14:15.706Z,19.73
2019-01-26T00:15:15.702Z,19.67
2019-01-26T00:16:21.004Z,19.59
2019-01-26T00:17:16.681Z,19.58
2019-01-26T00:18:15.692Z,19.73
2019-01-26T00:19:15.655Z,19.67
2019-01-26T00:20:15.634Z,19.74
2019-01-26T00:21:15.645Z,19.62
2019-01-26T00:22:15.656Z,19.66
2019-01-26T00:23:15.610Z,19.59
2019-01-26T00:24:15.588Z,19.64
2019-01-26T00:25:15.569Z,19.56
2019-01-26T00:26:15.545Z,19.63
2019-01-26T00:27:15.580Z,19.49
2019-01-26T00:28:15.544Z,19.62
2019-01-26T00:29:15.516Z,19.52
2019-01-26T00:30:15.540Z,19.56
2019-01-26T00:31:15.585Z,19.63
2019-01-26T00:32:15.549Z,19.66
2019-01-26T00:33:15.492Z,19.59
2019-01-26T00:34:15.574Z,19.64
2019-01-26T00:35:15.476Z,19.73
2019-01-26T00:36:15.454Z,19.59
2019-01-26T00:37:15.432Z,19.62
2019-01-26T00:38:15.402Z,19.59
2019-01-26T00:39:15.396Z,19.70
2019-01-26T00:40:15.437Z,19.63
2019-01-26T00:41:15.377Z,19.64
2019-01-26T00:42:15.365Z,19.59
2019-01-26T00:43:15.383Z,19.55
2019-01-26T00:44:15.340Z,19.54
2019-01-26T00:45:15.336Z,19.58
2019-01-26T00:46:15.330Z,19.58
2019-01-26T00:47:15.304Z,19.64
2019-01-26T00:48:15.364Z,19.67
2019-01-26T00:49:15.348Z,19.59
2019-01-26T00:50:15.310Z,19.62
2019-01-26T00:51:17.269Z,19.66
2019-01-26T00:52:15.251Z,19.62
2019-01-26T00:53:15.243Z,19.71
2019-01-26T00:54:15.240Z,19.66
2019-01-26T00:55:15.246Z,19.69
2019-01-26T00:56:15.210Z,19.70
2019-01-26T00:57:15.201Z,19.59
2019-01-26T00:58:15.195Z,19.58
2019-01-26T00:59:15.167Z,19.73
2019-01-26T01:00:15.193Z,19.62
2019-01-26T01:01:15.152Z,19.56
2019-01-26T01:02:15.164Z,19.62
2019-01-26T01:03:15.150Z,19.62
2019-01-26T01:04:15.173Z,19.73
2019-01-26T01:05:15.113Z,19.69
2019-01-26T01:06:15.108Z,19.70
2019-01-26T01:07:15.076Z,19.79
2019-01-26T01:08:15.073Z,19.77
2019-01-26T01:09:15.054Z,19.76
2019-01-26T01:10:15.095Z,19.81
2019-01-26T01:11:15.072Z,19.77
2019-01-26T01:12:15.051Z,19.74
2019-01-26T01:13:15.072Z,19.67
2019-01-26T01:14:15.002Z,19.70
2019-01-26T01:15:14.989Z,19.69
2019-01-26T01:16:15.023Z,19.67
2019-01-26T01:17:14.991Z,19.59
2019-01-26T01:18:15.061Z,19.63
2019-01-26T01:19:14.937Z,19.62
2019-01-26T01:20:14.927Z,19.63
2019-01-26T01:21:14.929Z,19.62
2019-01-26T01:22:14.919Z,19.59
2019-01-26T01:23:14.931Z,19.55
2019-01-26T01:24:14.903Z,19.64
2019-01-26T01:25:14.900Z,19.67
2019-01-26T01:26:14.880Z,19.74
2019-01-26T01:27:14.857Z,19.71
2019-01-26T01:28:14.880Z,19.70
2019-01-26T01:29:14.831Z,19.66
2019-01-26T01:30:14.830Z,19.73
2019-01-26T01:31:14.832Z,19.69
2019-01-26T01:32:14.835Z,19.62
2019-01-26T01:33:14.780Z,19.59
2019-01-26T01:34:14.772Z,19.59
2019-01-26T01:35:14.757Z,19.62
2019-01-26T01:36:14.808Z,19.63
2019-01-26T01:37:14.785Z,19.73
2019-01-26T01:38:14.730Z,19.73
2019-01-26T01:39:14.727Z,19.76
2019-01-26T01:40:14.778Z,19.81
2019-01-26T01:41:14.704Z,19.77
2019-01-26T01:42:14.685Z,19.86
2019-01-26T01:43:14.733Z,19.74
2019-01-26T01:44:14.660Z,19.74
2019-01-26T01:45:14.646Z,19.79
2019-01-26T01:46:14.654Z,19.74
2019-01-26T01:47:14.624Z,19.88
2019-01-26T01:48:14.773Z,19.81
2019-01-26T01:49:14.599Z,19.84
2019-01-26T01:50:14.613Z,19.77
2019-01-26T01:51:14.602Z,19.77
2019-01-26T01:52:14.569Z,19.71
2019-01-26T01:53:14.590Z,19.73
2019-01-26T01:54:14.553Z,19.62
2019-01-26T01:55:14.546Z,19.73
2019-01-26T01:56:14.535Z,19.67
2019-01-26T01:57:14.514Z,19.74
2019-01-26T01:58:14.526Z,19.73
2019-01-26T01:59:14.482Z,19.67
2019-01-26T02:00:14.480Z,19.73
2019-01-26T02:01:14.498Z,19.81
2019-01-26T02:02:14.478Z,19.79
2019-01-26T02:03:14.439Z,19.81
2019-01-26T02:04:14.429Z,19.76
2019-01-26T02:05:14.422Z,19.74
2019-01-26T02:06:14.430Z,19.71
2019-01-26T02:07:14.486Z,19.70
2019-01-26T02:08:14.387Z,19.73
2019-01-26T02:09:14.413Z,19.70
2019-01-26T02:10:14.408Z,19.66
2019-01-26T02:11:14.366Z,19.64
2019-01-26T02:12:14.396Z,19.62
2019-01-26T02:13:14.341Z,19.59
2019-01-26T02:14:14.321Z,19.66
2019-01-26T02:15:14.316Z,19.74
2019-01-26T02:16:14.301Z,19.69
2019-01-26T02:17:14.307Z,19.70
2019-01-26T02:18:14.414Z,19.79
2019-01-26T02:19:14.295Z,19.77
2019-01-26T02:20:14.262Z,19.81
2019-01-26T02:21:14.240Z,19.77
2019-01-26T02:22:14.256Z,19.77
2019-01-26T02:23:14.251Z,19.82
2019-01-26T02:24:14.239Z,19.73
2019-01-26T02:25:14.194Z,19.70
2019-01-26T02:26:14.184Z,19.66
2019-01-26T02:27:14.202Z,19.77
2019-01-26T02:28:14.218Z,19.82
2019-01-26T02:29:14.153Z,19.81
2019-01-26T02:30:14.148Z,19.85
2019-01-26T02:31:14.141Z,19.79
2019-01-26T02:32:14.205Z,19.79
2019-01-26T02:33:14.104Z,19.73
2019-01-26T02:34:14.105Z,19.82
2019-01-26T02:35:14.084Z,19.84
2019-01-26T02:36:14.080Z,19.81
2019-01-26T02:37:14.129Z,19.74
2019-01-26T02:38:14.045Z,19.77
2019-01-26T02:39:14.039Z,19.77
2019-01-26T02:40:14.024Z,19.81
2019-01-26T02:41:14.029Z,19.76
2019-01-26T02:42:14.011Z,19.74
2019-01-26T02:43:13.999Z,19.69
2019-01-26T02:44:13.986Z,19.71
2019-01-26T02:45:13.963Z,19.81
2019-01-26T02:46:13.952Z,19.79
2019-01-26T02:47:13.956Z,19.73
2019-01-26T02:48:13.998Z,19.73
2019-01-26T02:49:13.930Z,19.63
2019-01-26T02:50:13.922Z,19.71
2019-01-26T02:51:13.909Z,19.63
2019-01-26T02:52:13.967Z,19.63
2019-01-26T02:53:13.889Z,19.66
2019-01-26T02:54:13.862Z,19.69
2019-01-26T02:55:13.918Z,19.59
2019-01-26T02:56:13.920Z,19.62
2019-01-26T02:57:13.845Z,19.67
2019-01-26T02:58:13.828Z,19.64
2019-01-26T02:59:13.817Z,19.62
2019-01-26T03:00:13.809Z,19.64
2019-01-26T03:01:13.791Z,19.59
2019-01-26T03:02:13.794Z,19.76
2019-01-26T03:03:13.840Z,19.70
2019-01-26T03:04:13.784Z,19.81
2019-01-26T03:05:13.753Z,19.77
2019-01-26T03:06:13.764Z,19.77
2019-01-26T03:07:13.780Z,19.85
2019-01-26T03:08:13.931Z,19.79
2019-01-26T03:09:13.717Z,19.81
2019-01-26T03:10:13.702Z,19.88
2019-01-26T03:11:13.743Z,19.86
2019-01-26T03:12:13.720Z,19.84
2019-01-26T03:13:13.713Z,19.86
2019-01-26T03:14:13.667Z,19.82
2019-01-26T03:15:13.641Z,19.81
2019-01-26T03:16:13.648Z,19.79
2019-01-26T03:17:13.675Z,19.82
2019-01-26T03:18:13.678Z,19.77
2019-01-26T03:19:13.598Z,19.77
2019-01-26T03:20:13.583Z,19.71
2019-01-26T03:21:13.594Z,19.81
2019-01-26T03:22:13.557Z,19.88
2019-01-26T03:23:13.576Z,19.88
2019-01-26T03:24:13.580Z,19.84
2019-01-26T03:25:13.525Z,19.85
2019-01-26T03:26:13.551Z,19.85
2019-01-26T03:27:13.507Z,19.77
2019-01-26T03:28:13.495Z,19.77
2019-01-26T03:29:13.502Z,19.85
2019-01-26T03:30:13.456Z,19.85
2019-01-26T03:31:13.456Z,19.77
2019-01-26T03:32:13.458Z,19.77
2019-01-26T03:33:13.461Z,19.79
2019-01-26T03:34:13.419Z,19.79
2019-01-26T03:35:13.398Z,19.84
2019-01-26T03:36:13.453Z,19.79
2019-01-26T03:37:13.390Z,19.64
2019-01-26T03:38:13.386Z,19.71
2019-01-26T03:39:13.363Z,19.81
2019-01-26T03:40:13.368Z,19.76
2019-01-26T03:41:13.344Z,19.79
2019-01-26T03:42:13.324Z,19.76
2019-01-26T03:43:13.322Z,19.77
2019-01-26T03:44:13.305Z,19.84
2019-01-26T03:45:13.314Z,19.82
2019-01-26T03:46:13.283Z,19.86
2019-01-26T03:47:13.839Z,19.89
2019-01-26T03:48:13.383Z,19.77
2019-01-26T03:49:13.240Z,19.79
2019-01-26T03:50:13.253Z,19.76
2019-01-26T03:51:13.229Z,19.73
2019-01-26T03:52:13.207Z,19.77
2019-01-26T03:53:13.209Z,19.77
2019-01-26T03:54:13.191Z,19.74
2019-01-26T03:55:13.175Z,19.70
2019-01-26T03:56:13.162Z,19.69
2019-01-26T03:57:13.152Z,19.73
2019-01-26T03:58:13.146Z,19.70
2019-01-26T03:59:13.134Z,19.73
2019-01-26T04:00:13.134Z,19.79
2019-01-26T04:01:13.103Z,19.81
2019-01-26T04:02:13.127Z,19.84
2019-01-26T04:03:13.131Z,19.74
2019-01-26T04:04:14.167Z,19.91
2019-01-26T04:05:13.093Z,19.76
2019-01-26T04:06:13.055Z,19.82
2019-01-26T04:07:13.056Z,19.73
2019-01-26T04:08:13.050Z,19.81
2019-01-26T04:09:13.011Z,19.86
2019-01-26T04:10:13.020Z,19.89
2019-01-26T04:11:13.029Z,19.86
2019-01-26T04:12:12.985Z,19.88
2019-01-26T04:13:13.022Z,19.89
2019-01-26T04:14:12.973Z,19.85
2019-01-26T04:15:12.954Z,19.76
2019-01-26T04:16:12.934Z,19.74
2019-01-26T04:17:12.929Z,19.76
2019-01-26T04:18:13.109Z,19.85
2019-01-26T04:19:12.932Z,19.91
2019-01-26T04:20:12.899Z,19.77
2019-01-26T04:21:12.905Z,19.91
2019-01-26T04:22:12.868Z,19.89
2019-01-26T04:23:12.857Z,19.86
2019-01-26T04:24:12.865Z,19.82
2019-01-26T04:25:12.830Z,19.88
2019-01-26T04:26:12.877Z,19.85
2019-01-26T04:27:12.818Z,19.92
2019-01-26T04:28:12.800Z,19.91
2019-01-26T04:29:12.852Z,19.79
2019-01-26T04:30:12.790Z,19.81
2019-01-26T04:31:12.775Z,19.81
2019-01-26T04:32:12.754Z,19.79
2019-01-26T04:33:12.781Z,19.79
2019-01-26T04:34:12.755Z,19.81
2019-01-26T04:35:12.728Z,19.79
2019-01-26T04:36:12.740Z,19.85
2019-01-26T04:37:12.710Z,19.86
2019-01-26T04:38:12.709Z,19.88
2019-01-26T04:39:12.802Z,19.94
2019-01-26T04:40:12.664Z,19.94
2019-01-26T04:41:12.664Z,19.88
2019-01-26T04:42:12.643Z,19.85
2019-01-26T04:43:12.643Z,19.88
2019-01-26T04:44:12.628Z,19.82
2019-01-26T04:45:12.619Z,19.81
2019-01-26T04:46:12.605Z,19.77
2019-01-26T04:47:12.593Z,19.77
2019-01-26T04:48:12.581Z,19.79
2019-01-26T04:49:12.580Z,19.81
2019-01-26T04:50:12.581Z,19.82
2019-01-26T04:51:12.543Z,19.79
2019-01-26T04:52:12.528Z,19.79
2019-01-26T04:53:12.535Z,19.77
2019-01-26T04:54:12.523Z,19.73
2019-01-26T04:55:12.521Z,19.79
2019-01-26T04:56:12.478Z,19.73
2019-01-26T04:57:12.482Z,19.81
2019-01-26T04:58:12.464Z,19.82
2019-01-26T04:59:12.456Z,19.81
2019-01-26T05:00:12.447Z,19.84
2019-01-26T05:01:12.461Z,19.88
2019-01-26T05:02:12.435Z,19.86
2019-01-26T05:03:12.438Z,19.86
2019-01-26T05:04:12.429Z,19.86
2019-01-26T05:05:12.389Z,19.86
2019-01-26T05:06:12.376Z,19.89
2019-01-26T05:07:12.372Z,19.95
2019-01-26T05:08:12.359Z,19.85
2019-01-26T05:09:12.413Z,19.96
2019-01-26T05:10:12.396Z,19.92
2019-01-26T05:11:12.319Z,19.92
2019-01-26T05:12:12.315Z,19.88
2019-01-26T05:13:12.299Z,19.88
2019-01-26T05:14:12.303Z,19.92
2019-01-26T05:15:12.268Z,19.85
2019-01-26T05:16:12.259Z,19.91
2019-01-26T05:17:12.266Z,19.94
2019-01-26T05:18:12.288Z,19.84
2019-01-26T05:19:12.260Z,19.88
2019-01-26T05:20:12.243Z,19.71
2019-01-26T05:21:12.224Z,19.73
2019-01-26T05:22:12.299Z,19.85
2019-01-26T05:23:12.193Z,19.89
2019-01-26T05:24:12.194Z,19.77
2019-01-26T05:25:12.168Z,19.92
2019-01-26T05:26:12.285Z,19.88
2019-01-26T05:27:12.176Z,19.88
2019-01-26T05:28:12.140Z,19.88
2019-01-26T05:29:12.305Z,19.94
2019-01-26T05:30:12.143Z,19.89
2019-01-26T05:31:12.097Z,19.82
2019-01-26T05:32:12.091Z,19.86
2019-01-26T05:33:12.091Z,19.88
2019-01-26T05:34:12.058Z,19.85
2019-01-26T05:35:12.086Z,19.76
2019-01-26T05:36:12.043Z,19.77
2019-01-26T05:37:12.028Z,19.88
2019-01-26T05:38:12.034Z,19.89
2019-01-26T05:39:12.023Z,19.79
2019-01-26T05:40:12.034Z,19.79
2019-01-26T05:41:12.021Z,19.74
2019-01-26T05:42:11.980Z,19.76
2019-01-26T05:43:12.041Z,19.94
2019-01-26T05:44:11.942Z,19.92
2019-01-26T05:45:12.007Z,19.89
2019-01-26T05:46:11.925Z,19.91
2019-01-26T05:47:11.902Z,19.99
2019-01-26T05:48:16.956Z,19.88
2019-01-26T05:49:11.943Z,19.86
2019-01-26T05:50:11.886Z,19.89
2019-01-26T05:51:11.866Z,19.86
2019-01-26T05:52:11.864Z,19.88
2019-01-26T05:53:11.846Z,19.82
2019-01-26T05:54:11.831Z,19.92
2019-01-26T05:55:11.839Z,19.95
2019-01-26T05:56:11.832Z,19.84
2019-01-26T05:57:11.810Z,19.95
2019-01-26T05:58:11.781Z,19.94
2019-01-26T05:59:11.773Z,19.88
2019-01-26T06:00:11.775Z,19.89
2019-01-26T06:01:11.789Z,19.91
2019-01-26T06:02:11.741Z,19.86
2019-01-26T06:03:11.737Z,19.89
2019-01-26T06:04:11.709Z,19.91
2019-01-26T06:05:11.727Z,19.94
2019-01-26T06:06:11.708Z,19.92
2019-01-26T06:07:11.681Z,19.94
2019-01-26T06:08:11.727Z,19.94
2019-01-26T06:09:11.676Z,19.94
2019-01-26T06:10:11.657Z,19.88
2019-01-26T06:11:11.680Z,19.85
2019-01-26T06:12:11.661Z,19.94
2019-01-26T06:13:11.617Z,19.92
2019-01-26T06:14:11.603Z,19.84
2019-01-26T06:15:11.616Z,19.94
2019-01-26T06:16:11.586Z,19.89
2019-01-26T06:17:11.588Z,19.85
2019-01-26T06:18:11.690Z,19.89
2019-01-26T06:19:11.569Z,19.89
2019-01-26T06:20:11.565Z,19.88
2019-01-26T06:21:11.545Z,19.89
2019-01-26T06:22:11.545Z,19.85
2019-01-26T06:23:11.507Z,19.85
2019-01-26T06:24:11.485Z,19.96
2019-01-26T06:25:11.475Z,19.89
2019-01-26T06:26:11.497Z,19.82
2019-01-26T06:27:11.579Z,19.94
2019-01-26T06:28:11.462Z,19.89
2019-01-26T06:29:11.439Z,19.89
2019-01-26T06:30:11.437Z,19.88
2019-01-26T06:31:11.487Z,19.88
2019-01-26T06:32:11.457Z,19.86
2019-01-26T06:33:11.393Z,19.88
2019-01-26T06:34:11.384Z,19.86
2019-01-26T06:35:11.381Z,19.85
2019-01-26T06:36:11.361Z,19.86
2019-01-26T06:37:11.337Z,19.86
2019-01-26T06:38:11.331Z,19.84
2019-01-26T06:39:11.365Z,19.81
2019-01-26T06:40:11.389Z,19.96
2019-01-26T06:41:11.312Z,19.88
2019-01-26T06:42:11.297Z,19.89
2019-01-26T06:43:11.271Z,19.96
2019-01-26T06:44:11.268Z,20.02
2019-01-26T06:45:11.254Z,20.03
2019-01-26T06:46:11.255Z,19.99
2019-01-26T06:47:11.226Z,19.96
2019-01-26T06:48:11.355Z,19.91
2019-01-26T06:49:11.219Z,19.96
2019-01-26T06:50:11.213Z,19.96
2019-01-26T06:51:11.234Z,19.92
2019-01-26T06:52:11.174Z,19.88
2019-01-26T06:53:11.162Z,19.85
2019-01-26T06:54:11.159Z,19.95
2019-01-26T06:55:11.138Z,19.94
2019-01-26T06:56:11.121Z,19.94
2019-01-26T06:57:11.118Z,19.89
2019-01-26T06:58:11.102Z,19.88
2019-01-26T06:59:11.093Z,19.86
2019-01-26T07:00:11.089Z,19.89
2019-01-26T07:01:11.081Z,19.89
2019-01-26T07:02:11.073Z,19.89
2019-01-26T07:03:11.040Z,19.94
2019-01-26T07:04:11.046Z,19.86
2019-01-26T07:05:11.026Z,19.95
2019-01-26T07:06:11.008Z,19.95
2019-01-26T07:07:11.027Z,19.96
2019-01-26T07:08:10.983Z,19.95
2019-01-26T07:09:11.059Z,20.02
2019-01-26T07:10:10.974Z,20.03
2019-01-26T07:11:10.969Z,20.02
2019-01-26T07:12:10.950Z,20.03
2019-01-26T07:13:10.932Z,20.06
2019-01-26T07:14:10.926Z,20.00
2019-01-26T07:15:10.904Z,20.00
2019-01-26T07:16:10.937Z,19.95
2019-01-26T07:17:10.899Z,19.94
2019-01-26T07:18:10.951Z,19.92
2019-01-26T07:19:10.871Z,20.02
2019-01-26T07:20:10.853Z,19.92
2019-01-26T07:21:10.893Z,19.95
2019-01-26T07:22:10.927Z,19.91
2019-01-26T07:23:10.834Z,19.92
2019-01-26T07:24:10.813Z,19.95
2019-01-26T07:25:10.865Z,19.92
2019-01-26T07:26:10.858Z,19.94
2019-01-26T07:27:10.788Z,20.00
2019-01-26T07:28:10.776Z,20.00
2019-01-26T07:29:10.755Z,20.02
2019-01-26T07:30:10.758Z,20.03
2019-01-26T07:31:10.740Z,20.00
2019-01-26T07:32:10.720Z,19.89
2019-01-26T07:33:10.725Z,19.96
2019-01-26T07:34:10.771Z,19.95
2019-01-26T07:35:10.760Z,20.00
2019-01-26T07:36:10.743Z,20.02
2019-01-26T07:37:10.676Z,19.99
2019-01-26T07:38:13.638Z,20.00
2019-01-26T07:39:10.646Z,20.02
2019-01-26T07:40:10.637Z,20.06
2019-01-26T07:41:10.648Z,20.00
2019-01-26T07:42:10.654Z,20.03
2019-01-26T07:43:10.619Z,20.02
2019-01-26T07:44:10.616Z,20.02
2019-01-26T07:45:10.576Z,20.03
2019-01-26T07:46:10.579Z,20.03
2019-01-26T07:47:10.586Z,20.06
2019-01-26T07:48:16.691Z,20.13
2019-01-26T07:49:11.518Z,20.06
2019-01-26T07:50:10.510Z,20.07
2019-01-26T07:51:10.510Z,20.10
2019-01-26T07:52:10.499Z,20.00
2019-01-26T07:53:10.494Z,20.03
2019-01-26T07:54:10.465Z,19.99
2019-01-26T07:55:10.465Z,19.95
2019-01-26T07:56:10.440Z,20.03
2019-01-26T07:57:10.435Z,20.07
2019-01-26T07:58:10.485Z,20.00
2019-01-26T07:59:10.417Z,20.03
2019-01-26T08:00:10.406Z,20.04
2019-01-26T08:01:10.389Z,20.06
2019-01-26T08:02:10.379Z,20.07
2019-01-26T08:03:10.375Z,19.99
2019-01-26T08:04:10.360Z,20.06
2019-01-26T08:05:10.399Z,20.00
2019-01-26T08:06:10.367Z,19.99
2019-01-26T08:07:10.327Z,20.04
2019-01-26T08:08:10.324Z,20.07
2019-01-26T08:09:10.304Z,20.00
2019-01-26T08:10:10.287Z,20.02
2019-01-26T08:11:10.274Z,20.03
2019-01-26T08:12:10.276Z,19.99
2019-01-26T08:13:10.294Z,20.00
2019-01-26T08:14:10.268Z,19.99
2019-01-26T08:15:10.228Z,20.03
2019-01-26T08:16:10.224Z,20.04
2019-01-26T08:17:10.218Z,19.95
2019-01-26T08:18:10.234Z,20.03
2019-01-26T08:19:10.187Z,19.95
2019-01-26T08:20:10.177Z,20.00
2019-01-26T08:21:10.169Z,20.04
2019-01-26T08:22:10.212Z,20.02
2019-01-26T08:23:10.247Z,20.00
2019-01-26T08:24:10.144Z,20.06
2019-01-26T08:25:10.128Z,20.04
2019-01-26T08:26:10.116Z,20.06
2019-01-26T08:27:10.100Z,20.09
2019-01-26T08:28:10.116Z,20.11
2019-01-26T08:29:10.088Z,20.09
2019-01-26T08:30:10.063Z,20.09
2019-01-26T08:31:10.050Z,20.06
2019-01-26T08:32:10.034Z,20.09
2019-01-26T08:33:10.054Z,20.13
2019-01-26T08:34:10.045Z,20.04
2019-01-26T08:35:10.030Z,20.06
2019-01-26T08:36:10.018Z,20.04
2019-01-26T08:37:10.007Z,20.10
2019-01-26T08:38:10.021Z,20.04
2019-01-26T08:39:09.975Z,20.03
2019-01-26T08:40:09.947Z,20.04
2019-01-26T08:41:09.939Z,20.03
2019-01-26T08:42:09.983Z,20.07
2019-01-26T08:43:09.936Z,20.10
2019-01-26T08:44:09.939Z,20.07
2019-01-26T08:45:09.918Z,20.04
2019-01-26T08:46:09.923Z,20.06
2019-01-26T08:47:09.907Z,20.09
2019-01-26T08:48:09.885Z,20.06
2019-01-26T08:49:09.883Z,20.04
2019-01-26T08:50:09.853Z,20.06
2019-01-26T08:51:09.829Z,20.06
2019-01-26T08:52:09.862Z,20.04
2019-01-26T08:53:09.806Z,19.99
2019-01-26T08:54:09.796Z,19.99
2019-01-26T08:55:09.792Z,20.02
2019-01-26T08:56:09.777Z,20.00
2019-01-26T08:57:09.777Z,20.06
2019-01-26T08:58:09.743Z,20.03
2019-01-26T08:59:09.759Z,19.99
2019-01-26T09:00:09.733Z,19.99
2019-01-26T09:01:09.713Z,20.02
2019-01-26T09:02:09.818Z,20.04
2019-01-26T09:03:09.723Z,20.03
2019-01-26T09:04:09.697Z,20.00
2019-01-26T09:05:09.670Z,20.06
2019-01-26T09:06:09.657Z,20.09
2019-01-26T09:07:09.640Z,20.07
2019-01-26T09:08:09.643Z,20.03
2019-01-26T09:09:09.630Z,20.13
2019-01-26T09:10:09.643Z,20.13
2019-01-26T09:11:09.725Z,20.07
2019-01-26T09:12:09.580Z,20.13
2019-01-26T09:13:09.577Z,20.09
2019-01-26T09:14:09.580Z,20.11
2019-01-26T09:15:09.568Z,20.14
2019-01-26T09:16:09.535Z,20.13
2019-01-26T09:17:09.554Z,20.10
2019-01-26T09:18:09.629Z,20.11
2019-01-26T09:19:09.515Z,20.11
2019-01-26T09:20:11.740Z,20.18
2019-01-26T09:21:09.537Z,20.16
2019-01-26T09:22:09.471Z,20.14
2019-01-26T09:23:09.473Z,20.09
2019-01-26T09:24:09.486Z,20.18
2019-01-26T09:25:09.458Z,20.16
2019-01-26T09:26:09.431Z,20.14
2019-01-26T09:27:09.431Z,20.13
2019-01-26T09:28:09.450Z,20.21
2019-01-26T09:29:09.393Z,20.11
2019-01-26T09:30:09.395Z,20.16
2019-01-26T09:31:09.369Z,20.13
2019-01-26T09:32:09.377Z,20.09
2019-01-26T09:33:09.418Z,20.13
2019-01-26T09:34:09.332Z,20.14
2019-01-26T09:35:09.361Z,20.11
2019-01-26T09:36:09.348Z,20.10
2019-01-26T09:37:09.305Z,20.14
2019-01-26T09:38:09.291Z,20.11
2019-01-26T09:39:09.280Z,20.07
2019-01-26T09:40:09.281Z,20.10
2019-01-26T09:41:09.260Z,20.10
2019-01-26T09:42:09.280Z,20.09
2019-01-26T09:43:09.264Z,20.09
2019-01-26T09:44:09.241Z,20.10
2019-01-26T09:45:09.300Z,20.11
2019-01-26T09:46:09.245Z,20.13
2019-01-26T09:47:09.192Z,20.10
2019-01-26T09:48:09.264Z,20.24
2019-01-26T09:49:09.180Z,20.21
2019-01-26T09:50:09.209Z,20.16
2019-01-26T09:51:09.177Z,20.22
2019-01-26T09:52:09.134Z,20.21
2019-01-26T09:53:09.130Z,20.21
2019-01-26T09:54:09.168Z,20.24
2019-01-26T09:55:09.111Z,20.16
2019-01-26T09:56:09.082Z,20.13
2019-01-26T09:57:09.073Z,20.14
2019-01-26T09:58:09.067Z,20.11
2019-01-26T09:59:09.075Z,20.10
2019-01-26T10:00:09.105Z,20.09
2019-01-26T10:01:09.027Z,20.16
2019-01-26T10:02:09.014Z,20.10
2019-01-26T10:03:09.004Z,20.14
2019-01-26T10:04:09.014Z,20.09
2019-01-26T10:05:09.010Z,20.25
2019-01-26T10:06:08.976Z,20.14
2019-01-26T10:07:08.992Z,20.21
2019-01-26T10:08:08.965Z,20.14
2019-01-26T10:09:08.976Z,20.16
2019-01-26T10:10:08.981Z,20.19
2019-01-26T10:11:08.958Z,20.16
2019-01-26T10:12:08.967Z,20.19
2019-01-26T10:13:08.906Z,20.21
2019-01-26T10:14:08.893Z,20.13
2019-01-26T10:15:08.892Z,20.13
2019-01-26T10:16:08.905Z,20.16
2019-01-26T10:17:08.870Z,20.11
2019-01-26T10:18:09.058Z,20.10
2019-01-26T10:19:08.859Z,20.14
2019-01-26T10:20:08.842Z,20.25
2019-01-26T10:21:08.825Z,20.11
2019-01-26T10:22:08.873Z,20.25
2019-01-26T10:23:08.796Z,20.19
2019-01-26T10:24:08.773Z,20.24
2019-01-26T10:25:08.772Z,20.13
2019-01-26T10:26:08.744Z,20.18
2019-01-26T10:27:08.757Z,20.19
2019-01-26T10:28:08.743Z,20.16
2019-01-26T10:29:08.732Z,20.16
2019-01-26T10:30:08.739Z,20.22
2019-01-26T10:31:08.684Z,20.19
2019-01-26T10:32:08.686Z,20.18
2019-01-26T10:33:08.740Z,20.21
2019-01-26T10:34:08.673Z,20.21
2019-01-26T10:35:08.654Z,20.22
2019-01-26T10:36:08.652Z,20.26
2019-01-26T10:37:08.710Z,20.16
2019-01-26T10:38:08.610Z,20.18
2019-01-26T10:39:08.597Z,20.24
2019-01-26T10:40:08.633Z,20.14
2019-01-26T10:41:08.596Z,20.19
2019-01-26T10:42:08.601Z,20.16
2019-01-26T10:43:08.552Z,20.16
2019-01-26T10:44:08.566Z,20.14
2019-01-26T10:45:08.572Z,20.14
2019-01-26T10:46:08.546Z,20.13
2019-01-26T10:47:08.571Z,20.24
2019-01-26T10:48:08.543Z,20.10
2019-01-26T10:49:08.499Z,20.19
2019-01-26T10:50:08.494Z,20.16
2019-01-26T10:51:08.586Z,20.21
2019-01-26T10:52:08.494Z,20.24
2019-01-26T10:53:08.436Z,20.16
2019-01-26T10:54:08.433Z,20.19
2019-01-26T10:55:08.423Z,20.21
2019-01-26T10:56:08.512Z,20.13
2019-01-26T10:57:08.432Z,20.18
2019-01-26T10:58:08.406Z,20.19
2019-01-26T10:59:08.436Z,20.31
2019-01-26T11:00:08.369Z,20.25
2019-01-26T11:01:08.389Z,20.24
2019-01-26T11:02:08.338Z,20.26
2019-01-26T11:03:08.363Z,20.32
2019-01-26T11:04:08.343Z,20.28
2019-01-26T11:05:08.752Z,20.31
2019-01-26T11:06:08.338Z,20.28
2019-01-26T11:07:08.327Z,20.40
2019-01-26T11:08:08.299Z,20.31
2019-01-26T11:09:08.337Z,20.37
2019-01-26T11:10:08.256Z,20.40
2019-01-26T11:11:08.295Z,20.47
2019-01-26T11:12:08.242Z,20.40
2019-01-26T11:13:08.221Z,20.44
2019-01-26T11:14:08.213Z,20.43
2019-01-26T11:15:08.197Z,20.32
2019-01-26T11:16:08.232Z,20.34
2019-01-26T11:17:08.166Z,20.37
2019-01-26T11:18:08.185Z,20.34
2019-01-26T11:19:08.223Z,20.36
2019-01-26T11:20:08.143Z,20.28
2019-01-26T11:21:08.128Z,20.31
2019-01-26T11:22:08.124Z,20.31
2019-01-26T11:23:08.101Z,20.24
2019-01-26T11:24:08.088Z,20.31
2019-01-26T11:25:08.079Z,20.29
2019-01-26T11:26:08.078Z,20.28
2019-01-26T11:27:08.053Z,20.29
2019-01-26T11:28:08.053Z,20.34
2019-01-26T11:29:08.038Z,20.28
2019-01-26T11:30:08.055Z,20.40
2019-01-26T11:31:08.049Z,20.34
2019-01-26T11:32:08.001Z,20.26
2019-01-26T11:33:07.983Z,20.31
2019-01-26T11:34:07.994Z,20.31
2019-01-26T11:35:07.962Z,20.34
2019-01-26T11:36:07.962Z,20.28
2019-01-26T11:37:08.050Z,20.29
2019-01-26T11:38:07.940Z,20.31
2019-01-26T11:39:07.934Z,20.34
2019-01-26T11:40:07.931Z,20.26
2019-01-26T11:41:07.913Z,20.39
2019-01-26T11:42:07.890Z,20.26
2019-01-26T11:43:07.885Z,20.28
2019-01-26T11:44:07.899Z,20.32
2019-01-26T11:45:07.855Z,20.36
2019-01-26T11:46:07.879Z,20.34
2019-01-26T11:47:07.868Z,20.43
2019-01-26T11:48:07.925Z,20.39
2019-01-26T11:49:07.804Z,20.40
2019-01-26T11:50:07.794Z,20.43
2019-01-26T11:51:07.798Z,20.44
2019-01-26T11:52:07.786Z,20.41
2019-01-26T11:53:07.827Z,20.41
2019-01-26T11:54:07.761Z,20.51
2019-01-26T11:55:07.743Z,20.47
2019-01-26T11:56:07.736Z,20.48
2019-01-26T11:57:07.714Z,20.41
2019-01-26T11:58:07.707Z,20.50
2019-01-26T11:59:07.736Z,20.51
2019-01-26T12:00:07.704Z,20.44
2019-01-26T12:01:07.684Z,20.55
2019-01-26T12:02:07.664Z,20.40
2019-01-26T12:03:07.655Z,20.48
2019-01-26T12:04:07.636Z,20.51
2019-01-26T12:05:07.627Z,20.44
2019-01-26T12:06:07.636Z,20.55
2019-01-26T12:07:07.622Z,20.47
2019-01-26T12:08:07.618Z,20.48
2019-01-26T12:09:07.580Z,20.48
2019-01-26T12:10:07.575Z,20.44
2019-01-26T12:11:07.568Z,20.48
2019-01-26T12:12:07.574Z,20.39
2019-01-26T12:13:07.534Z,20.43
2019-01-26T12:14:07.526Z,20.50
2019-01-26T12:15:07.519Z,20.32
2019-01-26T12:16:07.508Z,20.48
2019-01-26T12:17:07.513Z,20.39
2019-01-26T12:18:07.561Z,20.36
2019-01-26T12:19:07.565Z,20.48
2019-01-26T12:20:07.454Z,20.48
2019-01-26T12:21:07.449Z,20.47
2019-01-26T12:22:07.560Z,20.50
2019-01-26T12:23:07.422Z,20.44
2019-01-26T12:24:07.431Z,20.48
2019-01-26T12:25:07.405Z,20.50
2019-01-26T12:26:07.420Z,20.50
2019-01-26T12:27:07.392Z,20.59
2019-01-26T12:28:07.424Z,20.56
2019-01-26T12:29:07.423Z,20.50
2019-01-26T12:30:07.357Z,20.51
2019-01-26T12:31:07.361Z,20.50
2019-01-26T12:32:07.325Z,20.47
2019-01-26T12:33:07.353Z,20.47
2019-01-26T12:34:07.331Z,20.47
2019-01-26T12:35:07.300Z,20.48
2019-01-26T12:36:07.285Z,20.51
2019-01-26T12:37:07.288Z,20.44
2019-01-26T12:38:07.264Z,20.52
2019-01-26T12:39:07.240Z,20.43
2019-01-26T12:40:07.235Z,20.41
2019-01-26T12:41:07.233Z,20.44
2019-01-26T12:42:07.248Z,20.44
2019-01-26T12:43:07.242Z,20.47
2019-01-26T12:44:07.208Z,20.52
2019-01-26T12:45:07.181Z,20.40
2019-01-26T12:46:07.226Z,20.48
2019-01-26T12:47:07.162Z,20.47
2019-01-26T12:48:07.208Z,20.51
2019-01-26T12:49:07.140Z,20.51
2019-01-26T12:50:07.190Z,20.48
2019-01-26T12:51:07.110Z,20.43
2019-01-26T12:52:07.126Z,20.51